Terminal Aerodrome Forecast
Issued by NWS Lake Charles, LA

Home | Current Version | Previous Version | Text Only | Print | Product List | Glossary On
Versions: 1 2 3 4 5 6 7 8 9 10 11 12 13 14 15 16 17
705
FTUS44 KLCH 242320
TAFAEX
TAF
KAEX 242320Z 2500/2524 31006KT P6SM FEW050 SCT250
      TEMPO 2511/2514 5SM BR
     FM251600 29008KT P6SM SCT200=

USA.gov is the U.S. government's official web portal to all federal, state and local government web resources and services.